sensor_id;sensor_type;location;lat;lon;timestamp;pressure;altitude;pressure_sealevel;temperature;humidity
73671;BME280;61968;48.178;11.566;2023-02-15T00:02:00;97096.91;;;1.43;45.45
73671;BME280;61968;48.178;11.566;2023-02-15T00:04:27;97094.56;;;1.49;44.75
73671;BME280;61968;48.178;11.566;2023-02-15T00:07:12;97094.00;;;1.46;45.31
73671;BME280;61968;48.178;11.566;2023-02-15T00:09:39;97098.53;;;1.44;44.27
73671;BME280;61968;48.178;11.566;2023-02-15T00:12:05;97095.09;;;1.34;45.31
73671;BME280;61968;48.178;11.566;2023-02-15T00:14:32;97093.47;;;1.33;44.84
73671;BME280;61968;48.178;11.566;2023-02-15T00:17:00;97094.69;;;1.29;45.15
73671;BME280;61968;48.178;11.566;2023-02-15T00:19:26;97084.41;;;1.37;44.48
73671;BME280;61968;48.178;11.566;2023-02-15T00:21:52;97085.78;;;1.41;44.82
73671;BME280;61968;48.178;11.566;2023-02-15T00:24:19;97079.09;;;1.38;44.83
73671;BME280;61968;48.178;11.566;2023-02-15T00:26:46;97084.53;;;1.35;44.74
73671;BME280;61968;48.178;11.566;2023-02-15T00:29:14;97083.41;;;1.38;44.95
73671;BME280;61968;48.178;11.566;2023-02-15T00:31:41;97088.53;;;1.39;44.55
73671;BME280;61968;48.178;11.566;2023-02-15T00:34:11;97093.84;;;1.38;44.72
73671;BME280;61968;48.178;11.566;2023-02-15T00:36:38;97083.56;;;1.36;44.26
73671;BME280;61968;48.178;11.566;2023-02-15T00:39:05;97087.00;;;1.37;44.29
73671;BME280;61968;48.178;11.566;2023-02-15T00:41:32;97088.66;;;1.18;44.46
73671;BME280;61968;48.178;11.566;2023-02-15T00:43:58;97085.25;;;1.18;44.51
73671;BME280;61968;48.178;11.566;2023-02-15T00:46:25;97086.88;;;1.29;44.23
73671;BME280;61968;48.178;11.566;2023-02-15T00:48:51;97088.50;;;1.20;44.01
73671;BME280;61968;48.178;11.566;2023-02-15T00:51:19;97079.88;;;1.10;44.74
73671;BME280;61968;48.178;11.566;2023-02-15T00:53:46;97068.50;;;1.11;44.47
73671;BME280;61968;48.178;11.566;2023-02-15T00:56:13;97069.03;;;1.04;44.57
73671;BME280;61968;48.178;11.566;2023-02-15T00:58:40;97070.28;;;1.00;44.75
73671;BME280;61968;48.178;11.566;2023-02-15T01:01:07;97067.41;;;0.94;45.03
73671;BME280;61968;48.178;11.566;2023-02-15T01:03:34;97062.75;;;1.07;44.67
73671;BME280;61968;48.178;11.566;2023-02-15T01:06:01;97069.47;;;1.10;44.57
73671;BME280;61968;48.178;11.566;2023-02-15T01:08:29;97063.28;;;1.11;44.19
73671;BME280;61968;48.178;11.566;2023-02-15T01:10:56;97064.97;;;1.02;44.24
73671;BME280;61968;48.178;11.566;2023-02-15T01:13:22;97054.78;;;0.89;44.67
73671;BME280;61968;48.178;11.566;2023-02-15T01:15:53;97052.88;;;0.82;44.98
73671;BME280;61968;48.178;11.566;2023-02-15T01:18:19;97049.84;;;0.76;45.35
73671;BME280;61968;48.178;11.566;2023-02-15T01:20:45;97046.00;;;0.71;45.19
73671;BME280;61968;48.178;11.566;2023-02-15T01:23:12;97043.28;;;0.72;44.76
73671;BME280;61968;48.178;11.566;2023-02-15T01:25:40;97041.50;;;0.63;44.88
73671;BME280;61968;48.178;11.566;2023-02-15T01:28:07;97041.34;;;0.55;45.21
73671;BME280;61968;48.178;11.566;2023-02-15T01:30:33;97047.91;;;0.59;45.17
73671;BME280;61968;48.178;11.566;2023-02-15T01:33:00;97046.28;;;0.68;45.27
73671;BME280;61968;48.178;11.566;2023-02-15T01:35:27;97042.75;;;0.69;45.47
73671;BME280;61968;48.178;11.566;2023-02-15T01:37:54;97040.69;;;0.72;45.11
73671;BME280;61968;48.178;11.566;2023-02-15T01:40:21;97038.91;;;0.73;44.60
73671;BME280;61968;48.178;11.566;2023-02-15T01:42:51;97034.53;;;0.93;44.03
73671;BME280;61968;48.178;11.566;2023-02-15T01:45:21;97029.88;;;0.87;44.49
73671;BME280;61968;48.178;11.566;2023-02-15T01:47:52;97031.63;;;0.76;44.10
73671;BME280;61968;48.178;11.566;2023-02-15T01:50:25;97034.78;;;0.70;44.22
73671;BME280;61968;48.178;11.566;2023-02-15T01:52:56;97017.94;;;0.84;44.06
73671;BME280;61968;48.178;11.566;2023-02-15T01:55:25;97027.94;;;0.69;44.10
73671;BME280;61968;48.178;11.566;2023-02-15T01:57:54;97025.72;;;0.55;44.65
73671;BME280;61968;48.178;11.566;2023-02-15T02:00:21;97024.09;;;0.54;44.83
73671;BME280;61968;48.178;11.566;2023-02-15T02:02:50;97024.22;;;0.62;44.66
73671;BME280;61968;48.178;11.566;2023-02-15T02:05:19;97020.53;;;0.65;44.83
73671;BME280;61968;48.178;11.566;2023-02-15T02:07:46;97016.56;;;0.61;44.94
73671;BME280;61968;48.178;11.566;2023-02-15T02:10:15;97016.28;;;0.54;44.81
73671;BME280;61968;48.178;11.566;2023-02-15T02:12:45;97009.84;;;0.58;45.18
73671;BME280;61968;48.178;11.566;2023-02-15T02:15:15;97006.16;;;0.70;44.52
73671;BME280;61968;48.178;11.566;2023-02-15T02:17:49;97003.38;;;0.62;45.03
73671;BME280;61968;48.178;11.566;2023-02-15T02:20:29;96999.44;;;0.58;45.26
73671;BME280;61968;48.178;11.566;2023-02-15T02:23:10;96997.78;;;0.57;44.40
73671;BME280;61968;48.178;11.566;2023-02-15T02:26:13;97002.47;;;0.53;45.07
73671;BME280;61968;48.178;11.566;2023-02-15T02:29:06;97012.88;;;0.53;45.38
73671;BME280;61968;48.178;11.566;2023-02-15T02:31:58;97007.50;;;0.55;44.73
73671;BME280;61968;48.178;11.566;2023-02-15T02:34:31;97006.25;;;0.59;44.91
73671;BME280;61968;48.178;11.566;2023-02-15T02:37:03;97005.19;;;0.71;44.55
73671;BME280;61968;48.178;11.566;2023-02-15T02:39:38;97000.53;;;0.75;44.35
73671;BME280;61968;48.178;11.566;2023-02-15T02:42:15;97005.06;;;0.63;44.24
73671;BME280;61968;48.178;11.566;2023-02-15T02:44:47;96998.88;;;0.45;45.20
73671;BME280;61968;48.178;11.566;2023-02-15T02:47:19;96994.09;;;0.60;44.81
73671;BME280;61968;48.178;11.566;2023-02-15T02:49:52;96995.31;;;0.65;45.26
73671;BME280;61968;48.178;11.566;2023-02-15T02:52:36;96995.03;;;0.68;44.79
73671;BME280;61968;48.178;11.566;2023-02-15T02:55:05;96994.22;;;0.68;44.51
73671;BME280;61968;48.178;11.566;2023-02-15T02:57:34;96997.50;;;0.70;44.13
73671;BME280;61968;48.178;11.566;2023-02-15T03:00:04;96998.72;;;0.37;44.11
73671;BME280;61968;48.178;11.566;2023-02-15T03:02:37;96991.03;;;0.16;45.40
73671;BME280;61968;48.178;11.566;2023-02-15T03:05:10;96990.91;;;0.27;45.41
73671;BME280;61968;48.178;11.566;2023-02-15T03:07:39;96994.22;;;0.39;45.15
73671;BME280;61968;48.178;11.566;2023-02-15T03:10:08;96992.44;;;0.29;44.95
73671;BME280;61968;48.178;11.566;2023-02-15T03:12:37;96996.66;;;0.40;44.67
73671;BME280;61968;48.178;11.566;2023-02-15T03:15:08;96990.50;;;0.41;44.93
73671;BME280;61968;48.178;11.566;2023-02-15T03:17:39;96991.56;;;0.29;45.28
73671;BME280;61968;48.178;11.566;2023-02-15T03:20:12;96995.16;;;0.38;45.25
73671;BME280;61968;48.178;11.566;2023-02-15T03:22:40;96993.38;;;0.38;44.99
73671;BME280;61968;48.178;11.566;2023-02-15T03:25:10;96995.84;;;0.20;45.02
73671;BME280;61968;48.178;11.566;2023-02-15T03:27:41;96990.31;;;0.14;45.76
73671;BME280;61968;48.178;11.566;2023-02-15T03:30:09;96990.38;;;0.23;45.93
73671;BME280;61968;48.178;11.566;2023-02-15T03:32:37;96988.97;;;0.29;45.61
73671;BME280;61968;48.178;11.566;2023-02-15T03:35:06;96990.91;;;0.37;45.43
73671;BME280;61968;48.178;11.566;2023-02-15T03:37:37;96982.41;;;0.44;45.51
73671;BME280;61968;48.178;11.566;2023-02-15T03:40:10;96984.09;;;0.45;44.95
73671;BME280;61968;48.178;11.566;2023-02-15T03:43:00;96986.41;;;0.48;44.81
73671;BME280;61968;48.178;11.566;2023-02-15T03:45:31;96989.44;;;0.53;44.96
73671;BME280;61968;48.178;11.566;2023-02-15T03:48:00;96996.28;;;0.54;45.31
73671;BME280;61968;48.178;11.566;2023-02-15T03:50:29;97001.34;;;0.56;45.08
73671;BME280;61968;48.178;11.566;2023-02-15T03:53:18;97000.38;;;0.47;45.00
73671;BME280;61968;48.178;11.566;2023-02-15T03:55:46;97001.75;;;0.42;45.51
73671;BME280;61968;48.178;11.566;2023-02-15T03:58:13;96995.44;;;0.44;45.40
73671;BME280;61968;48.178;11.566;2023-02-15T04:00:58;96989.84;;;0.49;45.31
73671;BME280;61968;48.178;11.566;2023-02-15T04:03:45;96987.13;;;0.50;45.45
73671;BME280;61968;48.178;11.566;2023-02-15T04:06:15;96990.25;;;0.54;45.22
73671;BME280;61968;48.178;11.566;2023-02-15T04:08:43;96977.09;;;0.65;45.32
73671;BME280;61968;48.178;11.566;2023-02-15T04:11:27;96989.44;;;0.63;45.32
73671;BME280;61968;48.178;11.566;2023-02-15T04:13:54;96990.53;;;0.61;45.38
73671;BME280;61968;48.178;11.566;2023-02-15T04:16:21;96980.81;;;0.63;45.05
73671;BME280;61968;48.178;11.566;2023-02-15T04:18:47;96983.16;;;0.66;45.13
73671;BME280;61968;48.178;11.566;2023-02-15T04:21:31;96986.84;;;0.63;45.09
73671;BME280;61968;48.178;11.566;2023-02-15T04:24:17;96989.97;;;0.67;44.99
73671;BME280;61968;48.178;11.566;2023-02-15T04:27:02;97001.06;;;0.59;45.20
73671;BME280;61968;48.178;11.566;2023-02-15T04:29:29;96997.78;;;0.57;45.04
73671;BME280;61968;48.178;11.566;2023-02-15T04:31:58;97002.84;;;2.01;70.06
73671;BME280;61968;48.178;11.566;2023-02-15T04:34:25;96998.09;;;3.66;55.98
73671;BME280;61968;48.178;11.566;2023-02-15T04:36:52;96996.97;;;4.03;53.86
73671;BME280;61968;48.178;11.566;2023-02-15T04:39:20;96990.59;;;4.72;51.55
73671;BME280;61968;48.178;11.566;2023-02-15T04:41:46;96994.41;;;5.19;51.27
73671;BME280;61968;48.178;11.566;2023-02-15T04:44:13;96993.16;;;5.78;45.46
73671;BME280;61968;48.178;11.566;2023-02-15T04:46:39;96982.22;;;5.98;42.84
73671;BME280;61968;48.178;11.566;2023-02-15T04:49:06;96988.38;;;6.29;40.50
73671;BME280;61968;48.178;11.566;2023-02-15T04:51:32;96989.06;;;6.15;39.51
73671;BME280;61968;48.178;11.566;2023-02-15T04:53:59;96990.50;;;6.57;38.97
73671;BME280;61968;48.178;11.566;2023-02-15T04:56:27;96981.22;;;6.69;38.23
73671;BME280;61968;48.178;11.566;2023-02-15T04:58:55;96981.19;;;6.78;37.22
73671;BME280;61968;48.178;11.566;2023-02-15T05:01:21;96981.91;;;7.09;33.69
73671;BME280;61968;48.178;11.566;2023-02-15T05:03:48;96983.81;;;6.15;33.92
73671;BME280;61968;48.178;11.566;2023-02-15T05:06:14;96985.06;;;5.24;35.10
73671;BME280;61968;48.178;11.566;2023-02-15T05:08:41;96993.84;;;4.58;37.45
73671;BME280;61968;48.178;11.566;2023-02-15T05:11:07;96997.09;;;4.01;37.31
73671;BME280;61968;48.178;11.566;2023-02-15T05:13:35;96987.47;;;3.59;37.72
73671;BME280;61968;48.178;11.566;2023-02-15T05:16:01;96991.81;;;3.06;38.94
73671;BME280;61968;48.178;11.566;2023-02-15T05:18:28;96989.81;;;2.82;39.97
73671;BME280;61968;48.178;11.566;2023-02-15T05:20:54;96994.97;;;2.56;40.33
73671;BME280;61968;48.178;11.566;2023-02-15T05:23:21;96988.53;;;2.33;40.84
73671;BME280;61968;48.178;11.566;2023-02-15T05:25:48;96992.13;;;2.04;41.31
73671;BME280;61968;48.178;11.566;2023-02-15T05:28:32;96991.78;;;1.89;41.87
73671;BME280;61968;48.178;11.566;2023-02-15T05:31:03;96995.88;;;1.92;41.73
73671;BME280;61968;48.178;11.566;2023-02-15T05:33:30;96992.13;;;1.77;42.00
73671;BME280;61968;48.178;11.566;2023-02-15T05:35:57;97008.63;;;1.67;42.98
73671;BME280;61968;48.178;11.566;2023-02-15T05:38:23;97009.34;;;1.50;43.04
73671;BME280;61968;48.178;11.566;2023-02-15T05:40:50;97004.16;;;1.40;43.68
73671;BME280;61968;48.178;11.566;2023-02-15T05:43:16;97000.75;;;1.40;43.82
73671;BME280;61968;48.178;11.566;2023-02-15T05:45:44;97003.19;;;1.32;44.21
73671;BME280;61968;48.178;11.566;2023-02-15T05:48:12;97002.91;;;1.35;44.27
73671;BME280;61968;48.178;11.566;2023-02-15T05:50:39;97001.56;;;1.31;43.53
73671;BME280;61968;48.178;11.566;2023-02-15T05:53:05;97001.00;;;1.37;43.87
73671;BME280;61968;48.178;11.566;2023-02-15T05:55:31;96996.06;;;1.34;43.88
73671;BME280;61968;48.178;11.566;2023-02-15T05:57:58;96991.28;;;1.19;44.34
73671;BME280;61968;48.178;11.566;2023-02-15T06:00:24;96989.34;;;1.31;43.49
73671;BME280;61968;48.178;11.566;2023-02-15T06:02:51;96998.84;;;1.22;43.95
73671;BME280;61968;48.178;11.566;2023-02-15T06:05:19;96993.09;;;1.19;44.17
73671;BME280;61968;48.178;11.566;2023-02-15T06:07:45;97005.97;;;1.11;44.38
73671;BME280;61968;48.178;11.566;2023-02-15T06:10:12;97003.53;;;1.09;44.82
73671;BME280;61968;48.178;11.566;2023-02-15T06:12:38;97010.81;;;0.96;44.92
73671;BME280;61968;48.178;11.566;2023-02-15T06:15:05;97004.91;;;0.94;44.63
73671;BME280;61968;48.178;11.566;2023-02-15T06:17:32;97008.06;;;0.88;45.42
73671;BME280;61968;48.178;11.566;2023-02-15T06:19:58;97009.00;;;0.77;45.51
73671;BME280;61968;48.178;11.566;2023-02-15T06:22:26;97004.91;;;0.74;45.87
73671;BME280;61968;48.178;11.566;2023-02-15T06:24:53;97007.91;;;0.89;45.53
73671;BME280;61968;48.178;11.566;2023-02-15T06:27:20;97010.81;;;0.96;46.53
73671;BME280;61968;48.178;11.566;2023-02-15T06:29:47;97012.03;;;1.01;45.36
73671;BME280;61968;48.178;11.566;2023-02-15T06:32:13;97015.63;;;0.81;46.19
73671;BME280;61968;48.178;11.566;2023-02-15T06:34:39;97019.44;;;0.96;45.95
73671;BME280;61968;48.178;11.566;2023-02-15T06:37:06;97019.16;;;0.99;46.34
73671;BME280;61968;48.178;11.566;2023-02-15T06:39:35;97024.13;;;0.93;45.09
73671;BME280;61968;48.178;11.566;2023-02-15T06:42:01;97025.75;;;0.94;45.84
73671;BME280;61968;48.178;11.566;2023-02-15T06:44:27;97021.78;;;0.99;45.79
73671;BME280;61968;48.178;11.566;2023-02-15T06:46:54;97021.22;;;0.96;45.81
73671;BME280;61968;48.178;11.566;2023-02-15T06:49:20;97020.25;;;0.97;45.64
73671;BME280;61968;48.178;11.566;2023-02-15T06:51:47;97026.16;;;0.99;45.54
73671;BME280;61968;48.178;11.566;2023-02-15T06:54:13;97017.09;;;1.03;45.71
73671;BME280;61968;48.178;11.566;2023-02-15T06:56:41;97019.28;;;1.17;44.90
73671;BME280;61968;48.178;11.566;2023-02-15T06:59:08;97014.75;;;1.19;45.37
73671;BME280;61968;48.178;11.566;2023-02-15T07:01:35;97019.56;;;1.14;45.01
73671;BME280;61968;48.178;11.566;2023-02-15T07:04:03;97029.56;;;1.09;45.14
73671;BME280;61968;48.178;11.566;2023-02-15T07:06:30;97019.97;;;1.00;45.74
73671;BME280;61968;48.178;11.566;2023-02-15T07:08:57;97023.28;;;1.02;46.26
73671;BME280;61968;48.178;11.566;2023-02-15T07:11:24;97020.94;;;1.18;45.40
73671;BME280;61968;48.178;11.566;2023-02-15T07:14:09;97024.75;;;1.24;45.21
73671;BME280;61968;48.178;11.566;2023-02-15T07:16:36;97021.03;;;1.17;45.34
73671;BME280;61968;48.178;11.566;2023-02-15T07:19:02;97022.72;;;1.18;45.54
73671;BME280;61968;48.178;11.566;2023-02-15T07:21:29;97022.56;;;1.19;45.34
73671;BME280;61968;48.178;11.566;2023-02-15T07:23:56;97026.28;;;1.07;45.56
73671;BME280;61968;48.178;11.566;2023-02-15T07:26:23;97020.94;;;1.09;45.93
73671;BME280;61968;48.178;11.566;2023-02-15T07:28:49;97025.03;;;1.01;45.90
73671;BME280;61968;48.178;11.566;2023-02-15T07:31:17;97021.59;;;1.11;45.38
73671;BME280;61968;48.178;11.566;2023-02-15T07:33:44;97026.28;;;1.07;45.79
73671;BME280;61968;48.178;11.566;2023-02-15T07:36:11;97020.78;;;1.10;45.56
73671;BME280;61968;48.178;11.566;2023-02-15T07:38:40;97018.34;;;1.09;45.76
73671;BME280;61968;48.178;11.566;2023-02-15T07:41:08;97016.13;;;1.04;45.59
73671;BME280;61968;48.178;11.566;2023-02-15T07:43:36;97016.41;;;1.01;45.89
73671;BME280;61968;48.178;11.566;2023-02-15T07:46:05;97011.19;;;1.01;45.63
73671;BME280;61968;48.178;11.566;2023-02-15T07:48:34;97017.91;;;1.03;45.87
73671;BME280;61968;48.178;11.566;2023-02-15T07:51:03;97022.03;;;1.06;45.42
73671;BME280;61968;48.178;11.566;2023-02-15T07:53:30;97013.25;;;1.07;45.61
73671;BME280;61968;48.178;11.566;2023-02-15T07:55:58;97009.28;;;1.03;45.98
73671;BME280;61968;48.178;11.566;2023-02-15T07:58:25;97012.84;;;1.12;45.50
73671;BME280;61968;48.178;11.566;2023-02-15T08:01:12;97005.41;;;1.26;45.27
73671;BME280;61968;48.178;11.566;2023-02-15T08:03:40;97003.91;;;1.24;44.85
73671;BME280;61968;48.178;11.566;2023-02-15T08:06:07;97002.13;;;1.24;45.49
73671;BME280;61968;48.178;11.566;2023-02-15T08:08:34;97002.81;;;1.17;45.61
73671;BME280;61968;48.178;11.566;2023-02-15T08:11:03;97000.09;;;1.09;46.04
73671;BME280;61968;48.178;11.566;2023-02-15T08:13:49;96996.25;;;1.03;46.08
73671;BME280;61968;48.178;11.566;2023-02-15T08:16:22;97002.44;;;1.02;46.43
73671;BME280;61968;48.178;11.566;2023-02-15T08:18:51;96999.38;;;1.16;45.51
73671;BME280;61968;48.178;11.566;2023-02-15T08:21:18;96995.00;;;1.07;45.59
73671;BME280;61968;48.178;11.566;2023-02-15T08:23:44;96994.88;;;1.09;46.14
73671;BME280;61968;48.178;11.566;2023-02-15T08:26:12;97004.22;;;1.11;46.31
73671;BME280;61968;48.178;11.566;2023-02-15T08:28:38;97000.38;;;1.15;46.44
73671;BME280;61968;48.178;11.566;2023-02-15T08:31:06;96998.16;;;1.20;45.61
73671;BME280;61968;48.178;11.566;2023-02-15T08:33:33;97005.13;;;1.20;45.73
73671;BME280;61968;48.178;11.566;2023-02-15T08:36:04;96997.47;;;1.18;46.15
73671;BME280;61968;48.178;11.566;2023-02-15T08:38:31;96995.00;;;1.26;45.52
73671;BME280;61968;48.178;11.566;2023-02-15T08:40:58;96996.91;;;1.24;45.90
73671;BME280;61968;48.178;11.566;2023-02-15T08:43:24;96995.00;;;1.26;45.85
73671;BME280;61968;48.178;11.566;2023-02-15T08:45:51;97001.28;;;1.34;45.10
73671;BME280;61968;48.178;11.566;2023-02-15T08:48:17;96993.75;;;1.31;45.56
73671;BME280;61968;48.178;11.566;2023-02-15T08:50:44;96998.28;;;1.19;45.56
73671;BME280;61968;48.178;11.566;2023-02-15T08:53:12;96996.22;;;1.22;45.53
73671;BME280;61968;48.178;11.566;2023-02-15T08:55:38;96997.44;;;1.28;45.42
73671;BME280;61968;48.178;11.566;2023-02-15T08:58:05;97000.59;;;1.32;45.68
73671;BME280;61968;48.178;11.566;2023-02-15T09:00:32;97007.63;;;1.21;46.01
73671;BME280;61968;48.178;11.566;2023-02-15T09:02:58;96999.53;;;1.24;46.34
73671;BME280;61968;48.178;11.566;2023-02-15T09:05:25;96999.53;;;1.24;45.87
73671;BME280;61968;48.178;11.566;2023-02-15T09:07:51;96999.66;;;1.33;46.26
73671;BME280;61968;48.178;11.566;2023-02-15T09:10:19;96996.22;;;1.32;46.21
73671;BME280;61968;48.178;11.566;2023-02-15T09:12:46;96999.41;;;1.26;45.73
73671;BME280;61968;48.178;11.566;2023-02-15T09:15:15;97001.97;;;1.36;45.74
73671;BME280;61968;48.178;11.566;2023-02-15T09:17:41;97003.59;;;1.37;46.14
73671;BME280;61968;48.178;11.566;2023-02-15T09:20:08;96996.06;;;1.43;46.37
73671;BME280;61968;48.178;11.566;2023-02-15T09:22:35;96990.69;;;1.55;46.28
73671;BME280;61968;48.178;11.566;2023-02-15T09:25:01;96994.66;;;1.59;46.17
73671;BME280;61968;48.178;11.566;2023-02-15T09:27:29;96998.06;;;1.59;45.69
73671;BME280;61968;48.178;11.566;2023-02-15T09:29:56;96994.38;;;1.62;46.25
73671;BME280;61968;48.178;11.566;2023-02-15T09:32:22;96994.19;;;1.73;45.73
73671;BME280;61968;48.178;11.566;2023-02-15T09:34:49;96993.25;;;1.64;46.11
73671;BME280;61968;48.178;11.566;2023-02-15T09:37:15;96996.09;;;1.81;45.84
73671;BME280;61968;48.178;11.566;2023-02-15T09:39:43;96994.31;;;1.81;45.64
73671;BME280;61968;48.178;11.566;2023-02-15T09:42:23;96991.59;;;1.73;45.95
73671;BME280;61968;48.178;11.566;2023-02-15T09:45:06;96996.69;;;1.75;46.30
73671;BME280;61968;48.178;11.566;2023-02-15T09:47:54;96993.22;;;1.74;46.26
73671;BME280;61968;48.178;11.566;2023-02-15T09:50:32;96991.16;;;1.78;46.83
73671;BME280;61968;48.178;11.566;2023-02-15T09:56:14;96997.78;;;2.00;46.54
73671;BME280;61968;48.178;11.566;2023-02-15T09:58:52;97000.63;;;2.06;46.04
73671;BME280;61968;48.178;11.566;2023-02-15T10:01:29;96993.09;;;2.03;46.50
73671;BME280;61968;48.178;11.566;2023-02-15T10:04:12;96997.44;;;2.12;45.66
73671;BME280;61968;48.178;11.566;2023-02-15T10:06:45;96997.00;;;2.17;44.89
73671;BME280;61968;48.178;11.566;2023-02-15T10:09:19;97000.50;;;2.08;45.58
73671;BME280;61968;48.178;11.566;2023-02-15T10:11:58;96996.09;;;2.08;46.01
73671;BME280;61968;48.178;11.566;2023-02-15T10:14:40;96997.44;;;2.12;46.47
73671;BME280;61968;48.178;11.566;2023-02-15T10:17:25;96995.75;;;2.21;46.27
73671;BME280;61968;48.178;11.566;2023-02-15T10:20:02;96996.66;;;2.30;46.08
73671;BME280;61968;48.178;11.566;2023-02-15T10:22:39;96992.78;;;2.34;45.84
73671;BME280;61968;48.178;11.566;2023-02-15T10:25:20;96992.47;;;2.37;45.92
73671;BME280;61968;48.178;11.566;2023-02-15T10:27:50;96991.53;;;2.38;44.90
73671;BME280;61968;48.178;11.566;2023-02-15T10:30:17;96988.16;;;2.28;45.07
73671;BME280;61968;48.178;11.566;2023-02-15T10:32:58;96984.56;;;2.29;44.71
73671;BME280;61968;48.178;11.566;2023-02-15T10:35:33;96983.84;;;2.36;46.77
73671;BME280;61968;48.178;11.566;2023-02-15T10:38:14;96984.34;;;2.40;47.37
73671;BME280;61968;48.178;11.566;2023-02-15T10:40:51;96983.63;;;2.30;47.17
73671;BME280;61968;48.178;11.566;2023-02-15T10:43:37;96976.44;;;2.32;46.72
73671;BME280;61968;48.178;11.566;2023-02-15T10:46:11;96978.03;;;2.43;46.68
73671;BME280;61968;48.178;11.566;2023-02-15T10:48:54;96970.50;;;2.57;46.49
73671;BME280;61968;48.178;11.566;2023-02-15T10:51:33;96969.31;;;2.52;44.92
73671;BME280;61968;48.178;11.566;2023-02-15T10:54:21;96965.13;;;2.59;45.09
73671;BME280;61968;48.178;11.566;2023-02-15T10:57:00;96964.00;;;2.61;45.74
73671;BME280;61968;48.178;11.566;2023-02-15T10:59:42;96963.94;;;2.53;45.97
73671;BME280;61968;48.178;11.566;2023-02-15T11:02:20;96960.94;;;2.66;44.90
73671;BME280;61968;48.178;11.566;2023-02-15T11:04:55;96948.03;;;2.64;45.25
73671;BME280;61968;48.178;11.566;2023-02-15T11:07:27;96942.50;;;2.50;45.80
73671;BME280;61968;48.178;11.566;2023-02-15T11:10:02;96948.63;;;2.58;46.09
73671;BME280;61968;48.178;11.566;2023-02-15T11:12:33;96938.19;;;2.76;45.99
73671;BME280;61968;48.178;11.566;2023-02-15T11:15:04;96930.25;;;2.86;45.34
73671;BME280;61968;48.178;11.566;2023-02-15T11:17:40;96928.16;;;2.90;45.73
73671;BME280;61968;48.178;11.566;2023-02-15T11:20:18;96924.16;;;3.03;44.99
73671;BME280;61968;48.178;11.566;2023-02-15T11:22:49;96921.75;;;3.10;44.71
73671;BME280;61968;48.178;11.566;2023-02-15T11:25:20;96918.31;;;3.09;45.30
73671;BME280;61968;48.178;11.566;2023-02-15T11:27:49;96915.69;;;3.27;44.87
73671;BME280;61968;48.178;11.566;2023-02-15T11:30:20;96915.25;;;3.40;44.88
73671;BME280;61968;48.178;11.566;2023-02-15T11:32:49;96910.59;;;3.52;44.35
73671;BME280;61968;48.178;11.566;2023-02-15T11:35:22;96911.09;;;3.55;44.49
73671;BME280;61968;48.178;11.566;2023-02-15T11:37:54;96903.59;;;3.61;44.36
73671;BME280;61968;48.178;11.566;2023-02-15T11:40:27;96905.44;;;3.68;44.21
73671;BME280;61968;48.178;11.566;2023-02-15T11:42:56;96897.63;;;3.85;43.67
73671;BME280;61968;48.178;11.566;2023-02-15T11:45:27;96892.94;;;3.96;43.51
73671;BME280;61968;48.178;11.566;2023-02-15T11:47:55;96889.63;;;3.86;43.20
73671;BME280;61968;48.178;11.566;2023-02-15T11:50:25;96889.91;;;3.75;44.42
73671;BME280;61968;48.178;11.566;2023-02-15T11:52:57;96882.59;;;3.87;43.53
73671;BME280;61968;48.178;11.566;2023-02-15T11:55:24;96872.81;;;3.97;43.45
73671;BME280;61968;48.178;11.566;2023-02-15T11:57:57;96872.69;;;4.15;43.78
73671;BME280;61968;48.178;11.566;2023-02-15T12:00:32;96870.38;;;4.28;43.51
73671;BME280;61968;48.178;11.566;2023-02-15T12:03:05;96862.06;;;4.41;42.88
73671;BME280;61968;48.178;11.566;2023-02-15T12:05:39;96865.16;;;4.36;42.77
73671;BME280;61968;48.178;11.566;2023-02-15T12:08:13;96859.63;;;4.48;42.29
73671;BME280;61968;48.178;11.566;2023-02-15T12:10:48;96860.44;;;4.56;42.31
73671;BME280;61968;48.178;11.566;2023-02-15T12:13:17;96863.53;;;4.68;42.91
73671;BME280;61968;48.178;11.566;2023-02-15T12:15:46;96850.25;;;4.78;42.33
73671;BME280;61968;48.178;11.566;2023-02-15T12:18:33;96858.63;;;4.89;41.93
73671;BME280;61968;48.178;11.566;2023-02-15T12:21:05;96849.44;;;4.94;42.16
73671;BME280;61968;48.178;11.566;2023-02-15T12:23:33;96848.75;;;5.08;42.81
73671;BME280;61968;48.178;11.566;2023-02-15T12:26:05;96840.22;;;5.14;42.16
73671;BME280;61968;48.178;11.566;2023-02-15T12:28:34;96842.44;;;5.33;42.75
73671;BME280;61968;48.178;11.566;2023-02-15T12:31:02;96833.72;;;5.41;42.12
73671;BME280;61968;48.178;11.566;2023-02-15T12:33:31;96834.75;;;5.32;42.03
73671;BME280;61968;48.178;11.566;2023-02-15T12:36:03;96829.28;;;5.50;41.96
73671;BME280;61968;48.178;11.566;2023-02-15T12:38:36;96828.72;;;5.63;41.68
73671;BME280;61968;48.178;11.566;2023-02-15T12:41:04;96814.34;;;5.81;41.59
73671;BME280;61968;48.178;11.566;2023-02-15T12:43:33;96818.53;;;5.91;41.03
73671;BME280;61968;48.178;11.566;2023-02-15T12:46:14;96824.88;;;6.04;40.00
73671;BME280;61968;48.178;11.566;2023-02-15T12:48:45;96823.63;;;6.15;40.21
73671;BME280;61968;48.178;11.566;2023-02-15T12:51:15;96827.25;;;6.37;40.41
73671;BME280;61968;48.178;11.566;2023-02-15T12:53:42;96817.44;;;6.54;39.16
73671;BME280;61968;48.178;11.566;2023-02-15T12:56:10;96819.34;;;6.60;39.24
73671;BME280;61968;48.178;11.566;2023-02-15T12:58:37;96811.31;;;6.62;39.16
73671;BME280;61968;48.178;11.566;2023-02-15T13:01:10;96810.59;;;6.68;39.42
73671;BME280;61968;48.178;11.566;2023-02-15T13:03:40;96805.78;;;6.71;38.79
73671;BME280;61968;48.178;11.566;2023-02-15T13:06:20;96795.09;;;6.88;38.33
73671;BME280;61968;48.178;11.566;2023-02-15T13:08:48;96795.53;;;6.91;38.81
73671;BME280;61968;48.178;11.566;2023-02-15T13:11:21;96792.84;;;7.00;39.09
73671;BME280;61968;48.178;11.566;2023-02-15T13:13:53;96796.19;;;7.08;38.15
73671;BME280;61968;48.178;11.566;2023-02-15T13:16:23;96787.94;;;7.11;38.85
73671;BME280;61968;48.178;11.566;2023-02-15T13:18:51;96793.13;;;7.19;38.51
73671;BME280;61968;48.178;11.566;2023-02-15T13:21:23;96787.00;;;7.19;38.27